sensor_id;sensor_type;location;lat;lon;timestamp;pressure;altitude;pressure_sealevel;temperature;humidity
73063;BME280;61230;46.328;19.972;2023-04-23T00:01:42;100433.47;;;8.55;89.19
73063;BME280;61230;46.328;19.972;2023-04-23T00:04:11;100432.72;;;8.33;85.79
73063;BME280;61230;46.328;19.972;2023-04-23T00:06:42;100422.72;;;8.27;88.71
73063;BME280;61230;46.328;19.972;2023-04-23T00:09:11;100431.31;;;8.29;86.98
73063;BME280;61230;46.328;19.972;2023-04-23T00:11:40;100430.56;;;8.27;85.45
73063;BME280;61230;46.328;19.972;2023-04-23T00:14:08;100430.13;;;8.22;85.26
73063;BME280;61230;46.328;19.972;2023-04-23T00:16:37;100430.00;;;8.23;89.18
73063;BME280;61230;46.328;19.972;2023-04-23T00:19:05;100429.75;;;8.26;90.72
73063;BME280;61230;46.328;19.972;2023-04-23T00:21:33;100427.50;;;8.22;91.69
73063;BME280;61230;46.328;19.972;2023-04-23T00:24:00;100425.47;;;7.93;92.14
73063;BME280;61230;46.328;19.972;2023-04-23T00:26:28;100376.97;;;7.67;90.21
73063;BME280;61230;46.328;19.972;2023-04-23T00:28:56;100429.87;;;7.93;89.51
73063;BME280;61230;46.328;19.972;2023-04-23T00:31:23;100426.91;;;7.97;95.43
73063;BME280;61230;46.328;19.972;2023-04-23T00:33:54;100422.94;;;7.92;96.51
73063;BME280;61230;46.328;19.972;2023-04-23T00:36:22;100422.78;;;7.73;95.66
73063;BME280;61230;46.328;19.972;2023-04-23T00:38:50;100425.03;;;7.77;96.50
73063;BME280;61230;46.328;19.972;2023-04-23T00:41:18;100422.03;;;7.82;96.77
73063;BME280;61230;46.328;19.972;2023-04-23T00:43:45;100423.97;;;7.80;98.19
73063;BME280;61230;46.328;19.972;2023-04-23T00:46:13;100422.06;;;7.71;97.35
73063;BME280;61230;46.328;19.972;2023-04-23T00:48:44;100421.69;;;7.75;97.10
73063;BME280;61230;46.328;19.972;2023-04-23T00:51:12;100418.66;;;7.48;96.69
73063;BME280;61230;46.328;19.972;2023-04-23T00:53:42;100424.34;;;7.64;96.97
73063;BME280;61230;46.328;19.972;2023-04-23T00:56:10;100424.72;;;7.60;96.25
73063;BME280;61230;46.328;19.972;2023-04-23T00:58:38;100423.06;;;7.47;94.55
73063;BME280;61230;46.328;19.972;2023-04-23T01:01:06;100413.41;;;7.59;94.10
73063;BME280;61230;46.328;19.972;2023-04-23T01:03:35;100413.25;;;7.61;96.68
73063;BME280;61230;46.328;19.972;2023-04-23T01:06:04;100419.56;;;7.58;96.71
73063;BME280;61230;46.328;19.972;2023-04-23T01:08:33;100402.13;;;7.36;95.84
73063;BME280;61230;46.328;19.972;2023-04-23T01:11:02;100430.22;;;7.45;95.59
73063;BME280;61230;46.328;19.972;2023-04-23T01:13:29;100368.38;;;7.00;92.96
73063;BME280;61230;46.328;19.972;2023-04-23T01:15:57;100418.28;;;7.41;93.60
73063;BME280;61230;46.328;19.972;2023-04-23T01:18:25;100420.56;;;7.46;93.48
73063;BME280;61230;46.328;19.972;2023-04-23T01:20:54;100418.31;;;7.30;93.83
73063;BME280;61230;46.328;19.972;2023-04-23T01:23:22;100417.47;;;7.30;94.96
73063;BME280;61230;46.328;19.972;2023-04-23T01:25:49;100427.59;;;7.23;93.89
73063;BME280;61230;46.328;19.972;2023-04-23T01:28:17;100420.09;;;7.30;92.88
73063;BME280;61230;46.328;19.972;2023-04-23T01:30:46;100421.16;;;7.38;92.64
73063;BME280;61230;46.328;19.972;2023-04-23T01:33:15;100372.53;;;7.03;93.41
73063;BME280;61230;46.328;19.972;2023-04-23T01:35:43;100429.00;;;7.38;94.35
73063;BME280;61230;46.328;19.972;2023-04-23T01:38:12;100428.31;;;7.25;91.56
73063;BME280;61230;46.328;19.972;2023-04-23T01:40:41;100418.69;;;7.15;91.70
73063;BME280;61230;46.328;19.972;2023-04-23T01:43:09;100421.62;;;7.21;93.72
73063;BME280;61230;46.328;19.972;2023-04-23T01:45:37;100418.31;;;7.19;93.74
73063;BME280;61230;46.328;19.972;2023-04-23T01:48:08;100386.47;;;6.92;95.04
73063;BME280;61230;46.328;19.972;2023-04-23T01:50:36;100424.84;;;7.25;94.48
73063;BME280;61230;46.328;19.972;2023-04-23T01:53:04;100426.63;;;7.24;94.19
73063;BME280;61230;46.328;19.972;2023-04-23T01:55:33;100429.38;;;7.23;95.42
73063;BME280;61230;46.328;19.972;2023-04-23T01:58:05;100424.25;;;7.21;94.91
73063;BME280;61230;46.328;19.972;2023-04-23T02:00:33;100365.16;;;6.85;95.36
73063;BME280;61230;46.328;19.972;2023-04-23T02:03:00;100420.09;;;7.19;95.03
73063;BME280;61230;46.328;19.972;2023-04-23T02:05:29;100421.88;;;7.18;95.11
73063;BME280;61230;46.328;19.972;2023-04-23T02:07:56;100415.09;;;7.16;96.86
73063;BME280;61230;46.328;19.972;2023-04-23T02:10:24;100420.47;;;7.14;97.30
73063;BME280;61230;46.328;19.972;2023-04-23T02:12:52;100377.41;;;6.74;96.53
73063;BME280;61230;46.328;19.972;2023-04-23T02:15:20;100425.09;;;7.11;95.27
73063;BME280;61230;46.328;19.972;2023-04-23T02:17:47;100424.84;;;7.14;95.46
73063;BME280;61230;46.328;19.972;2023-04-23T02:20:18;100428.19;;;7.16;95.30
73063;BME280;61230;46.328;19.972;2023-04-23T02:22:46;100423.78;;;7.05;94.16
73063;BME280;61230;46.328;19.972;2023-04-23T02:25:15;100416.87;;;7.15;95.70
73063;BME280;61230;46.328;19.972;2023-04-23T02:27:44;100419.25;;;7.07;96.62
73063;BME280;61230;46.328;19.972;2023-04-23T02:30:12;100423.31;;;7.00;95.64
73063;BME280;61230;46.328;19.972;2023-04-23T02:32:40;100423.16;;;6.90;95.33
73063;BME280;61230;46.328;19.972;2023-04-23T02:35:09;100424.94;;;6.90;95.98
73063;BME280;61230;46.328;19.972;2023-04-23T02:37:37;100428.88;;;6.95;96.81
73063;BME280;61230;46.328;19.972;2023-04-23T02:40:06;100374.41;;;6.67;98.00
73063;BME280;61230;46.328;19.972;2023-04-23T02:42:34;100425.09;;;7.00;99.40
73063;BME280;61230;46.328;19.972;2023-04-23T02:45:02;100434.09;;;6.95;100.00
73063;BME280;61230;46.328;19.972;2023-04-23T02:47:30;100426.00;;;6.87;100.00
73063;BME280;61230;46.328;19.972;2023-04-23T02:49:58;100422.56;;;6.76;100.00
73063;BME280;61230;46.328;19.972;2023-04-23T02:52:29;100422.06;;;6.71;100.00
73063;BME280;61230;46.328;19.972;2023-04-23T02:54:56;100428.97;;;6.61;100.00
73063;BME280;61230;46.328;19.972;2023-04-23T02:57:24;100424.06;;;6.67;100.00
73063;BME280;61230;46.328;19.972;2023-04-23T02:59:52;100415.44;;;6.67;100.00
73063;BME280;61230;46.328;19.972;2023-04-23T03:02:20;100422.88;;;6.60;100.00
73063;BME280;61230;46.328;19.972;2023-04-23T03:04:49;100419.06;;;6.53;100.00
73063;BME280;61230;46.328;19.972;2023-04-23T03:07:17;100428.56;;;6.54;100.00
73063;BME280;61230;46.328;19.972;2023-04-23T03:09:45;100415.56;;;6.42;100.00
73063;BME280;61230;46.328;19.972;2023-04-23T03:12:13;100415.22;;;6.35;100.00
73063;BME280;61230;46.328;19.972;2023-04-23T03:14:40;100418.31;;;6.40;100.00
73063;BME280;61230;46.328;19.972;2023-04-23T03:17:09;100409.00;;;6.25;100.00
73063;BME280;61230;46.328;19.972;2023-04-23T03:19:38;100413.06;;;6.29;100.00
73063;BME280;61230;46.328;19.972;2023-04-23T03:22:05;100416.06;;;6.35;100.00
73063;BME280;61230;46.328;19.972;2023-04-23T03:24:33;100414.25;;;6.36;100.00
73063;BME280;61230;46.328;19.972;2023-04-23T03:27:01;100409.38;;;6.31;100.00
73063;BME280;61230;46.328;19.972;2023-04-23T03:29:29;100409.63;;;6.40;100.00
73063;BME280;61230;46.328;19.972;2023-04-23T03:31:56;100410.44;;;6.29;100.00
73063;BME280;61230;46.328;19.972;2023-04-23T03:34:24;100407.47;;;6.33;100.00
73063;BME280;61230;46.328;19.972;2023-04-23T03:36:52;100408.50;;;6.20;100.00
73063;BME280;61230;46.328;19.972;2023-04-23T03:39:20;100414.78;;;6.17;100.00
73063;BME280;61230;46.328;19.972;2023-04-23T03:41:48;100411.28;;;6.29;100.00
73063;BME280;61230;46.328;19.972;2023-04-23T03:44:16;100408.91;;;6.26;100.00
73063;BME280;61230;46.328;19.972;2023-04-23T03:46:44;100413.44;;;6.35;100.00
73063;BME280;61230;46.328;19.972;2023-04-23T03:49:13;100416.87;;;6.36;100.00
73063;BME280;61230;46.328;19.972;2023-04-23T03:51:40;100416.06;;;6.35;100.00
73063;BME280;61230;46.328;19.972;2023-04-23T03:54:08;100418.94;;;6.44;100.00
73063;BME280;61230;46.328;19.972;2023-04-23T03:56:37;100413.94;;;6.41;100.00
73063;BME280;61230;46.328;19.972;2023-04-23T03:59:05;100420.13;;;6.51;100.00
73063;BME280;61230;46.328;19.972;2023-04-23T04:01:33;100424.47;;;6.39;100.00
73063;BME280;61230;46.328;19.972;2023-04-23T04:04:02;100424.28;;;6.53;100.00
73063;BME280;61230;46.328;19.972;2023-04-23T04:06:32;100375.13;;;6.12;100.00
73063;BME280;61230;46.328;19.972;2023-04-23T04:08:59;100423.00;;;6.59;100.00
73063;BME280;61230;46.328;19.972;2023-04-23T04:11:28;100423.75;;;6.37;100.00
73063;BME280;61230;46.328;19.972;2023-04-23T04:13:55;100422.44;;;6.66;100.00
73063;BME280;61230;46.328;19.972;2023-04-23T04:16:23;100423.97;;;6.69;100.00
73063;BME280;61230;46.328;19.972;2023-04-23T04:18:50;100427.78;;;6.76;100.00
73063;BME280;61230;46.328;19.972;2023-04-23T04:21:21;100375.59;;;6.52;100.00
73063;BME280;61230;46.328;19.972;2023-04-23T04:23:48;100438.03;;;6.90;100.00
73063;BME280;61230;46.328;19.972;2023-04-23T04:26:16;100429.47;;;6.99;98.19
73063;BME280;61230;46.328;19.972;2023-04-23T04:28:44;100426.16;;;7.08;100.00
73063;BME280;61230;46.328;19.972;2023-04-23T04:31:13;100423.41;;;7.10;100.00
73063;BME280;61230;46.328;19.972;2023-04-23T04:33:42;100430.94;;;7.14;100.00
73063;BME280;61230;46.328;19.972;2023-04-23T04:36:12;100426.75;;;7.23;100.00
73063;BME280;61230;46.328;19.972;2023-04-23T04:38:40;100417.13;;;7.12;100.00
73063;BME280;61230;46.328;19.972;2023-04-23T04:41:08;100384.41;;;6.95;99.50
73063;BME280;61230;46.328;19.972;2023-04-23T04:43:39;100387.16;;;7.05;100.00
73063;BME280;61230;46.328;19.972;2023-04-23T04:46:06;100431.16;;;7.33;100.00
73063;BME280;61230;46.328;19.972;2023-04-23T04:48:38;100430.69;;;7.39;98.22
73063;BME280;61230;46.328;19.972;2023-04-23T04:51:06;100382.87;;;7.26;96.94
73063;BME280;61230;46.328;19.972;2023-04-23T04:53:33;100424.94;;;7.68;95.16
73063;BME280;61230;46.328;19.972;2023-04-23T04:56:02;100432.38;;;7.83;94.84
73063;BME280;61230;46.328;19.972;2023-04-23T04:58:30;100437.72;;;7.93;93.97
73063;BME280;61230;46.328;19.972;2023-04-23T05:00:58;100438.13;;;8.09;95.03
73063;BME280;61230;46.328;19.972;2023-04-23T05:03:26;100435.22;;;8.23;96.65
73063;BME280;61230;46.328;19.972;2023-04-23T05:05:54;100417.41;;;8.28;93.80
73063;BME280;61230;46.328;19.972;2023-04-23T05:08:22;100438.94;;;8.52;92.68
73063;BME280;61230;46.328;19.972;2023-04-23T05:10:50;100392.41;;;8.45;90.21
73063;BME280;61230;46.328;19.972;2023-04-23T05:13:20;100440.31;;;8.88;89.40
73063;BME280;61230;46.328;19.972;2023-04-23T05:15:48;100405.09;;;8.91;89.28
73063;BME280;61230;46.328;19.972;2023-04-23T05:18:16;100430.50;;;9.20;89.06
73063;BME280;61230;46.328;19.972;2023-04-23T05:20:43;100438.47;;;9.40;87.02
73063;BME280;61230;46.328;19.972;2023-04-23T05:23:11;100395.31;;;9.33;86.62
73063;BME280;61230;46.328;19.972;2023-04-23T05:25:39;100438.44;;;9.79;86.11
73063;BME280;61230;46.328;19.972;2023-04-23T05:28:07;100440.13;;;10.00;85.79
73063;BME280;61230;46.328;19.972;2023-04-23T05:30:35;100442.97;;;10.17;85.36
73063;BME280;61230;46.328;19.972;2023-04-23T05:33:02;100444.63;;;10.37;85.03
73063;BME280;61230;46.328;19.972;2023-04-23T05:35:30;100443.78;;;10.56;84.43
73063;BME280;61230;46.328;19.972;2023-04-23T05:37:58;100447.66;;;10.71;83.75
73063;BME280;61230;46.328;19.972;2023-04-23T05:40:26;100405.81;;;10.59;83.12
73063;BME280;61230;46.328;19.972;2023-04-23T05:42:53;100446.91;;;10.98;83.07
73063;BME280;61230;46.328;19.972;2023-04-23T05:45:21;100452.00;;;11.09;82.79
73063;BME280;61230;46.328;19.972;2023-04-23T05:47:49;100447.41;;;11.21;82.59
73063;BME280;61230;46.328;19.972;2023-04-23T05:50:19;100442.22;;;11.29;83.41
73063;BME280;61230;46.328;19.972;2023-04-23T05:52:47;100435.94;;;11.39;83.34
73063;BME280;61230;46.328;19.972;2023-04-23T05:55:15;100398.81;;;11.33;83.02
73063;BME280;61230;46.328;19.972;2023-04-23T05:57:42;100406.37;;;11.45;83.18
73063;BME280;61230;46.328;19.972;2023-04-23T06:00:11;100435.94;;;11.76;83.73
73063;BME280;61230;46.328;19.972;2023-04-23T06:02:39;100439.12;;;11.97;83.37
73063;BME280;61230;46.328;19.972;2023-04-23T06:05:08;100447.50;;;12.10;83.20
73063;BME280;61230;46.328;19.972;2023-04-23T06:07:36;100448.94;;;12.23;82.54
73063;BME280;61230;46.328;19.972;2023-04-23T06:10:04;100447.41;;;12.38;82.45
73063;BME280;61230;46.328;19.972;2023-04-23T06:12:32;100449.81;;;12.49;81.57
73063;BME280;61230;46.328;19.972;2023-04-23T06:15:00;100408.00;;;12.36;81.18
73063;BME280;61230;46.328;19.972;2023-04-23T06:17:28;100452.00;;;12.71;80.49
73063;BME280;61230;46.328;19.972;2023-04-23T06:19:56;100454.09;;;12.85;79.92
73063;BME280;61230;46.328;19.972;2023-04-23T06:22:24;100457.13;;;12.98;79.77
73063;BME280;61230;46.328;19.972;2023-04-23T06:24:52;100456.78;;;13.11;79.63
73063;BME280;61230;46.328;19.972;2023-04-23T06:27:19;100451.56;;;13.27;79.42
73063;BME280;61230;46.328;19.972;2023-04-23T06:29:47;100448.03;;;13.44;79.52
73063;BME280;61230;46.328;19.972;2023-04-23T06:32:15;100449.22;;;13.50;76.89
73063;BME280;61230;46.328;19.972;2023-04-23T06:34:46;100454.56;;;13.66;76.87
73063;BME280;61230;46.328;19.972;2023-04-23T06:37:27;100454.94;;;13.79;75.83
73063;BME280;61230;46.328;19.972;2023-04-23T06:39:58;100450.16;;;13.91;75.16
73063;BME280;61230;46.328;19.972;2023-04-23T06:42:25;100446.09;;;14.04;74.30
73063;BME280;61230;46.328;19.972;2023-04-23T06:44:55;100451.22;;;14.22;73.66
73063;BME280;61230;46.328;19.972;2023-04-23T06:47:23;100435.00;;;14.25;73.11
73063;BME280;61230;46.328;19.972;2023-04-23T06:49:51;100453.09;;;14.46;72.80
73063;BME280;61230;46.328;19.972;2023-04-23T06:52:19;100454.44;;;14.50;71.47
73063;BME280;61230;46.328;19.972;2023-04-23T06:54:46;100412.25;;;14.32;70.66
73063;BME280;61230;46.328;19.972;2023-04-23T06:57:14;100450.13;;;14.65;70.91
73063;BME280;61230;46.328;19.972;2023-04-23T06:59:42;100449.63;;;14.77;70.18
73063;BME280;61230;46.328;19.972;2023-04-23T07:02:10;100444.19;;;14.87;70.36
73063;BME280;61230;46.328;19.972;2023-04-23T07:04:38;100408.09;;;14.78;70.17
73063;BME280;61230;46.328;19.972;2023-04-23T07:07:06;100447.41;;;15.13;69.12
73063;BME280;61230;46.328;19.972;2023-04-23T07:09:34;100446.72;;;15.27;67.99
73063;BME280;61230;46.328;19.972;2023-04-23T07:12:02;100443.56;;;15.32;67.42
73063;BME280;61230;46.328;19.972;2023-04-23T07:14:30;100446.69;;;15.43;66.92
73063;BME280;61230;46.328;19.972;2023-04-23T07:16:58;100443.34;;;15.58;66.74
73063;BME280;61230;46.328;19.972;2023-04-23T07:19:25;100448.09;;;15.70;66.11
73063;BME280;61230;46.328;19.972;2023-04-23T07:21:54;100442.56;;;15.80;66.55
73063;BME280;61230;46.328;19.972;2023-04-23T07:24:21;100441.88;;;15.86;66.99
73063;BME280;61230;46.328;19.972;2023-04-23T07:26:49;100440.19;;;15.93;67.02
73063;BME280;61230;46.328;19.972;2023-04-23T07:29:16;100434.94;;;16.07;67.07
73063;BME280;61230;46.328;19.972;2023-04-23T07:31:44;100438.03;;;16.19;66.61
73063;BME280;61230;46.328;19.972;2023-04-23T07:34:13;100441.25;;;16.29;66.39
73063;BME280;61230;46.328;19.972;2023-04-23T07:36:41;100436.16;;;16.28;65.09
73063;BME280;61230;46.328;19.972;2023-04-23T07:39:08;100435.66;;;16.47;64.87
73063;BME280;61230;46.328;19.972;2023-04-23T07:41:36;100438.13;;;16.56;63.72
73063;BME280;61230;46.328;19.972;2023-04-23T07:44:05;100438.75;;;16.58;63.28
73063;BME280;61230;46.328;19.972;2023-04-23T07:46:32;100435.38;;;16.64;62.87
73063;BME280;61230;46.328;19.972;2023-04-23T07:49:00;100440.63;;;16.73;62.62
73063;BME280;61230;46.328;19.972;2023-04-23T07:51:28;100405.81;;;16.45;62.26
73063;BME280;61230;46.328;19.972;2023-04-23T07:53:55;100444.41;;;16.78;61.58
73063;BME280;61230;46.328;19.972;2023-04-23T07:56:24;100443.69;;;16.84;61.88
73063;BME280;61230;46.328;19.972;2023-04-23T07:58:52;100442.97;;;16.90;61.28
73063;BME280;61230;46.328;19.972;2023-04-23T08:01:20;100445.41;;;16.77;60.74
73063;BME280;61230;46.328;19.972;2023-04-23T08:03:48;100440.06;;;17.00;60.89
73063;BME280;61230;46.328;19.972;2023-04-23T08:06:16;100451.72;;;17.13;61.24
73063;BME280;61230;46.328;19.972;2023-04-23T08:08:44;100405.63;;;16.84;61.14
73063;BME280;61230;46.328;19.972;2023-04-23T08:11:12;100443.28;;;17.24;60.89
73063;BME280;61230;46.328;19.972;2023-04-23T08:13:40;100439.59;;;17.40;59.84
73063;BME280;61230;46.328;19.972;2023-04-23T08:16:07;100440.53;;;17.47;59.64
73063;BME280;61230;46.328;19.972;2023-04-23T08:18:35;100438.13;;;17.52;59.10
73063;BME280;61230;46.328;19.972;2023-04-23T08:21:03;100438.59;;;17.70;59.50
73063;BME280;61230;46.328;19.972;2023-04-23T08:23:30;100399.78;;;17.61;59.97
73063;BME280;61230;46.328;19.972;2023-04-23T08:25:58;100434.28;;;18.05;60.18
73063;BME280;61230;46.328;19.972;2023-04-23T08:28:26;100434.22;;;18.20;59.90
73063;BME280;61230;46.328;19.972;2023-04-23T08:30:54;100435.38;;;18.32;60.35
73063;BME280;61230;46.328;19.972;2023-04-23T08:33:22;100427.66;;;18.58;60.19
73063;BME280;61230;46.328;19.972;2023-04-23T08:35:49;100433.09;;;18.71;59.45
73063;BME280;61230;46.328;19.972;2023-04-23T08:38:17;100437.97;;;18.89;59.80
73063;BME280;61230;46.328;19.972;2023-04-23T08:40:46;100427.37;;;19.02;58.98
73063;BME280;61230;46.328;19.972;2023-04-23T08:43:18;100394.53;;;18.95;59.24
73063;BME280;61230;46.328;19.972;2023-04-23T08:45:47;100439.53;;;19.39;59.06
73063;BME280;61230;46.328;19.972;2023-04-23T08:48:15;100426.69;;;19.56;58.52
73063;BME280;61230;46.328;19.972;2023-04-23T08:50:43;100429.78;;;19.59;57.48
73063;BME280;61230;46.328;19.972;2023-04-23T08:53:17;100420.44;;;19.83;57.92
73063;BME280;61230;46.328;19.972;2023-04-23T08:55:47;100421.91;;;19.98;54.89
73063;BME280;61230;46.328;19.972;2023-04-23T08:58:16;100420.91;;;20.06;53.51
73063;BME280;61230;46.328;19.972;2023-04-23T09:00:44;100407.34;;;20.07;51.87
73063;BME280;61230;46.328;19.972;2023-04-23T09:03:15;100413.19;;;20.44;51.66
73063;BME280;61230;46.328;19.972;2023-04-23T09:05:43;100407.03;;;20.37;51.21
73063;BME280;61230;46.328;19.972;2023-04-23T09:08:11;100409.69;;;20.30;51.75
73063;BME280;61230;46.328;19.972;2023-04-23T09:10:39;100412.78;;;20.60;51.61
73063;BME280;61230;46.328;19.972;2023-04-23T09:13:11;100410.69;;;20.95;51.83
73063;BME280;61230;46.328;19.972;2023-04-23T09:15:42;100403.69;;;21.07;48.86
73063;BME280;61230;46.328;19.972;2023-04-23T09:18:10;100410.31;;;20.91;49.25
73063;BME280;61230;46.328;19.972;2023-04-23T09:20:38;100404.31;;;21.09;50.01
73063;BME280;61230;46.328;19.972;2023-04-23T09:23:06;100399.81;;;20.77;48.85
73063;BME280;61230;46.328;19.972;2023-04-23T09:25:34;100408.22;;;21.06;49.01
73063;BME280;61230;46.328;19.972;2023-04-23T09:28:06;100403.34;;;20.77;49.11
73063;BME280;61230;46.328;19.972;2023-04-23T09:30:44;100402.69;;;20.75;49.12
73063;BME280;61230;46.328;19.972;2023-04-23T09:33:12;100403.25;;;21.23;47.53
73063;BME280;61230;46.328;19.972;2023-04-23T09:35:43;100392.28;;;21.51;46.57
73063;BME280;61230;46.328;19.972;2023-04-23T09:38:10;100396.63;;;21.83;46.16
73063;BME280;61230;46.328;19.972;2023-04-23T09:40:38;100396.63;;;21.90;40.84
73063;BME280;61230;46.328;19.972;2023-04-23T09:43:09;100394.38;;;21.80;40.15
73063;BME280;61230;46.328;19.972;2023-04-23T09:45:46;100396.91;;;22.13;41.65
73063;BME280;61230;46.328;19.972;2023-04-23T09:48:14;100393.56;;;22.49;39.63
73063;BME280;61230;46.328;19.972;2023-04-23T09:50:42;100394.16;;;22.51;40.38
73063;BME280;61230;46.328;19.972;2023-04-23T09:53:12;100388.03;;;22.44;40.55
73063;BME280;61230;46.328;19.972;2023-04-23T09:55:43;100386.06;;;22.57;37.05
73063;BME280;61230;46.328;19.972;2023-04-23T09:58:13;100374.88;;;22.60;34.61
73063;BME280;61230;46.328;19.972;2023-04-23T10:00:42;100380.72;;;23.00;34.82
73063;BME280;61230;46.328;19.972;2023-04-23T10:03:10;100378.34;;;22.92;30.35
73063;BME280;61230;46.328;19.972;2023-04-23T10:05:39;100374.81;;;22.17;31.84
73063;BME280;61230;46.328;19.972;2023-04-23T10:08:11;100369.75;;;22.03;30.95
73063;BME280;61230;46.328;19.972;2023-04-23T10:10:40;100361.81;;;21.83;29.93
73063;BME280;61230;46.328;19.972;2023-04-23T10:13:11;100320.50;;;21.66;31.32
73063;BME280;61230;46.328;19.972;2023-04-23T10:15:39;100363.47;;;22.22;33.50
73063;BME280;61230;46.328;19.972;2023-04-23T10:18:07;100358.13;;;22.89;32.73
73063;BME280;61230;46.328;19.972;2023-04-23T10:20:35;100361.38;;;23.53;27.64
73063;BME280;61230;46.328;19.972;2023-04-23T10:23:04;100346.00;;;23.71;27.17
73063;BME280;61230;46.328;19.972;2023-04-23T10:25:32;100345.03;;;24.37;25.08
73063;BME280;61230;46.328;19.972;2023-04-23T10:28:02;100342.94;;;23.38;26.33
73063;BME280;61230;46.328;19.972;2023-04-23T10:30:30;100344.47;;;23.27;27.50
73063;BME280;61230;46.328;19.972;2023-04-23T10:32:59;100343.84;;;24.33;27.60
73063;BME280;61230;46.328;19.972;2023-04-23T10:35:28;100330.69;;;24.66;27.57
73063;BME280;61230;46.328;19.972;2023-04-23T10:37:56;100341.31;;;25.07;27.83
73063;BME280;61230;46.328;19.972;2023-04-23T10:40:29;100339.78;;;24.53;27.84
73063;BME280;61230;46.328;19.972;2023-04-23T10:42:59;100309.62;;;24.63;27.06
73063;BME280;61230;46.328;19.972;2023-04-23T10:45:29;100333.56;;;25.11;26.56
73063;BME280;61230;46.328;19.972;2023-04-23T10:47:58;100339.91;;;25.85;26.59
73063;BME280;61230;46.328;19.972;2023-04-23T10:50:28;100329.47;;;26.05;25.08
73063;BME280;61230;46.328;19.972;2023-04-23T10:52:56;100324.97;;;25.94;24.73
73063;BME280;61230;46.328;19.972;2023-04-23T10:55:27;100322.50;;;25.36;23.86
73063;BME280;61230;46.328;19.972;2023-04-23T10:58:03;100322.75;;;25.34;24.60
73063;BME280;61230;46.328;19.972;2023-04-23T11:03:36;100325.25;;;23.90;26.00
73063;BME280;61230;46.328;19.972;2023-04-23T11:07:03;100325.03;;;22.96;27.19
73063;BME280;61230;46.328;19.972;2023-04-23T11:09:35;100320.62;;;23.19;27.80
73063;BME280;61230;46.328;19.972;2023-04-23T11:14:56;100320.16;;;22.68;28.17
73063;BME280;61230;46.328;19.972;2023-04-23T11:22:37;100318.03;;;22.27;30.40
73063;BME280;61230;46.328;19.972;2023-04-23T11:25:20;100303.69;;;21.84;30.65
73063;BME280;61230;46.328;19.972;2023-04-23T11:27:50;100314.63;;;21.82;30.92
73063;BME280;61230;46.328;19.972;2023-04-23T11:30:23;100302.63;;;21.91;30.53
73063;BME280;61230;46.328;19.972;2023-04-23T11:32:53;100310.44;;;21.99;30.64
73063;BME280;61230;46.328;19.972;2023-04-23T11:35:22;100321.84;;;22.87;29.81
73063;BME280;61230;46.328;19.972;2023-04-23T11:37:50;100314.00;;;23.40;28.45
73063;BME280;61230;46.328;19.972;2023-04-23T11:40:19;100309.84;;;24.15;28.00
73063;BME280;61230;46.328;19.972;2023-04-23T11:42:51;100302.66;;;23.68;27.63
73063;BME280;61230;46.328;19.972;2023-04-23T11:45:26;100292.44;;;23.47;28.09
73063;BME280;61230;46.328;19.972;2023-04-23T11:47:55;100300.69;;;23.75;28.13
73063;BME280;61230;46.328;19.972;2023-04-23T11:50:30;100293.47;;;23.75;27.70
73063;BME280;61230;46.328;19.972;2023-04-23T11:53:05;100291.25;;;23.06;28.60
73063;BME280;61230;46.328;19.972;2023-04-23T11:55:34;100293.84;;;22.76;28.64
73063;BME280;61230;46.328;19.972;2023-04-23T11:58:02;100287.69;;;22.33;28.87
73063;BME280;61230;46.328;19.972;2023-04-23T12:00:30;100249.25;;;22.39;28.48
73063;BME280;61230;46.328;19.972;2023-04-23T12:03:00;100276.62;;;23.38;27.43
73063;BME280;61230;46.328;19.972;2023-04-23T12:05:38;100280.09;;;24.10;26.98
73063;BME280;61230;46.328;19.972;2023-04-23T12:08:17;100278.25;;;24.69;25.87
73063;BME280;61230;46.328;19.972;2023-04-23T12:10:49;100275.19;;;25.00;25.67
73063;BME280;61230;46.328;19.972;2023-04-23T12:13:23;100241.44;;;24.34;25.73
73063;BME280;61230;46.328;19.972;2023-04-23T12:15:53;100269.81;;;25.00;25.41
73063;BME280;61230;46.328;19.972;2023-04-23T12:18:31;100266.41;;;25.33;24.83
73063;BME280;61230;46.328;19.972;2023-04-23T12:21:09;100262.22;;;24.74;25.20
73063;BME280;61230;46.328;19.972;2023-04-23T12:23:41;100260.78;;;25.62;24.84
73063;BME280;61230;46.328;19.972;2023-04-23T12:26:13;100258.19;;;25.39;24.79
73063;BME280;61230;46.328;19.972;2023-04-23T12:29:00;100259.09;;;25.90;25.36
73063;BME280;61230;46.328;19.972;2023-04-23T12:31:28;100255.75;;;25.83;24.87
73063;BME280;61230;46.328;19.972;2023-04-23T12:34:03;100255.13;;;25.47;24.91
73063;BME280;61230;46.328;19.972;2023-04-23T12:36:32;100214.97;;;24.08;25.58
73063;BME280;61230;46.328;19.972;2023-04-23T12:39:19;100239.97;;;23.85;26.66
73063;BME280;61230;46.328;19.972;2023-04-23T12:42:11;100240.59;;;23.58;27.65
73063;BME280;61230;46.328;19.972;2023-04-23T12:44:39;100234.03;;;23.54;27.86
73063;BME280;61230;46.328;19.972;2023-04-23T12:47:08;100235.34;;;23.03;28.35
73063;BME280;61230;46.328;19.972;2023-04-23T12:49:38;100230.63;;;23.17;28.47
73063;BME280;61230;46.328;19.972;2023-04-23T12:52:07;100236.47;;;22.77;28.09
73063;BME280;61230;46.328;19.972;2023-04-23T12:54:37;100240.41;;;22.39;28.45
73063;BME280;61230;46.328;19.972;2023-04-23T12:57:10;100238.88;;;22.00;27.72
73063;BME280;61230;46.328;19.972;2023-04-23T12:59:39;100186.06;;;22.07;28.16
73063;BME280;61230;46.328;19.972;2023-04-23T13:02:08;100234.19;;;22.56;28.87
73063;BME280;61230;46.328;19.972;2023-04-23T13:04:35;100232.06;;;22.65;29.05